Time;durP1;ratioP1;P1;durP2;ratioP2;P2;SDS_P1;SDS_P2;PMS_P1;PMS_P2;Temp;Humidity;BMP_temperature;BMP_pressure;BME280_temperature;BME280_humidity;BME280_pressure;Samples;Min_cycle;Max_cycle;Signal;HPM_P1;HPM_P2
2022/06/18 00:01:34;;;;;;;17.13;9.75;;;;;;;23.26;52.86;101643.34;5050067;28;20033;-54
2022/06/18 00:04:04;;;;;;;16.67;10.32;;;;;;;23.14;52.98;101633.03;5049976;28;20387;-56
2022/06/18 00:06:31;;;;;;;16.88;10.10;;;;;;;23.15;53.30;101643.09;5050146;28;20136;-55
2022/06/18 00:08:57;;;;;;;16.42;10.05;;;;;;;23.08;53.45;101637.34;5050186;28;20036;-55
2022/06/18 00:14:07;;;;;;;18.02;10.05;;;;;;;23.03;53.83;101641.28;5050145;28;20040;-54
2022/06/18 00:16:32;;;;;;;17.35;10.55;;;;;;;23.00;54.12;101636.38;5050175;28;20020;-54
2022/06/18 00:18:57;;;;;;;16.50;10.30;;;;;;;22.95;54.00;101638.69;5050136;28;20025;-54
2022/06/18 00:21:25;;;;;;;17.58;10.32;;;;;;;22.92;54.20;101639.44;5053148;28;20065;-54
2022/06/18 00:23:51;;;;;;;15.68;10.40;;;;;;;22.94;54.36;101634.25;5053925;28;20036;-55
2022/06/18 00:26:17;;;;;;;16.88;10.32;;;;;;;22.89;54.47;101633.34;5053322;28;20053;-54
2022/06/18 00:28:43;;;;;;;16.33;9.88;;;;;;;22.81;54.74;101637.22;5053530;28;20396;-56
2022/06/18 00:31:08;;;;;;;16.83;10.48;;;;;;;22.74;55.01;101628.63;5053873;28;20115;-54
2022/06/18 00:33:39;;;;;;;17.85;10.32;;;;;;;22.66;55.23;101630.47;5053514;28;20036;-53
2022/06/18 00:36:06;;;;;;;16.50;10.15;;;;;;;22.58;55.67;101629.47;5053550;28;20386;-52
2022/06/18 00:38:35;;;;;;;17.15;10.40;;;;;;;22.57;55.77;101632.69;5053499;28;20037;-52
2022/06/18 00:41:01;;;;;;;18.20;10.40;;;;;;;22.51;55.97;101634.16;5053647;28;20036;-53
2022/06/18 00:43:32;;;;;;;17.75;10.48;;;;;;;22.40;56.42;101634.75;5052551;28;20020;-54
2022/06/18 00:46:33;;;;;;;17.08;10.27;;;;;;;22.43;56.07;101636.00;5053610;28;20029;-56
2022/06/18 00:49:23;;;;;;;18.10;10.40;;;;;;;22.41;56.14;101638.38;5052157;28;20080;-55
2022/06/18 00:51:54;;;;;;;16.38;10.32;;;;;;;22.30;56.80;101621.19;5040453;28;20029;-54
2022/06/18 00:54:39;;;;;;;17.45;10.38;;;;;;;22.26;56.88;101628.75;5033496;28;20030;-53
2022/06/18 00:57:07;;;;;;;17.52;10.30;;;;;;;22.19;57.43;101625.78;5033203;28;20603;-52
2022/06/18 00:59:41;;;;;;;17.52;10.90;;;;;;;22.12;57.39;101635.72;5032847;28;20041;-53
2022/06/18 01:02:14;;;;;;;17.83;10.88;;;;;;;22.07;57.53;101632.34;5032972;28;20384;-54
2022/06/18 01:04:39;;;;;;;17.75;11.40;;;;;;;22.07;57.78;101629.53;5047948;28;20042;-54
2022/06/18 01:07:36;;;;;;;18.73;11.05;;;;;;;22.07;56.82;101626.72;5033659;28;20028;-56
2022/06/18 01:10:04;;;;;;;18.20;11.00;;;;;;;21.99;58.30;101622.91;5047054;28;20041;-56
2022/06/18 01:12:30;;;;;;;18.88;11.15;;;;;;;21.92;58.54;101620.72;5033004;28;20042;-55
2022/06/18 01:15:08;;;;;;;17.50;10.82;;;;;;;21.85;58.38;101612.13;5032714;28;20032;-55
2022/06/18 01:17:37;;;;;;;19.13;11.10;;;;;;;21.85;59.07;101605.69;5033038;28;20102;-55
2022/06/18 01:20:07;;;;;;;18.83;11.77;;;;;;;21.79;58.98;101607.94;5032861;28;20033;-54
2022/06/18 01:22:52;;;;;;;19.30;11.52;;;;;;;21.73;59.32;101603.75;5032703;28;20103;-55
2022/06/18 01:25:18;;;;;;;17.73;11.40;;;;;;;21.72;59.62;101613.41;5032471;28;20051;-54
2022/06/18 01:27:44;;;;;;;19.40;11.02;;;;;;;21.69;59.93;101608.50;5032727;28;20026;-55
2022/06/18 01:30:16;;;;;;;18.83;11.32;;;;;;;21.61;59.91;101608.34;5032436;28;20435;-54
2022/06/18 01:32:43;;;;;;;19.92;11.98;;;;;;;21.63;59.99;101611.56;5032283;28;20108;-55
2022/06/18 01:35:10;;;;;;;18.52;11.55;;;;;;;21.55;60.03;101606.91;5033352;28;20093;-56
2022/06/18 01:37:36;;;;;;;19.27;11.32;;;;;;;21.53;60.30;101617.75;5032910;28;20032;-54
2022/06/18 01:40:04;;;;;;;18.65;11.88;;;;;;;21.45;60.35;101599.84;5032932;28;20104;-57
2022/06/18 01:42:39;;;;;;;18.45;11.20;;;;;;;21.47;60.33;101605.94;5032970;28;20037;-56
2022/06/18 01:45:10;;;;;;;19.98;11.65;;;;;;;21.41;60.69;101603.75;5048278;28;20036;-55
2022/06/18 01:48:06;;;;;;;18.90;11.63;;;;;;;21.42;59.98;101605.41;5033133;28;20025;-55
2022/06/18 01:50:39;;;;;;;18.35;11.85;;;;;;;21.31;61.19;101611.56;5007663;28;20107;-54
2022/06/18 01:53:16;;;;;;;18.63;12.10;;;;;;;21.30;61.37;101611.94;5032903;28;20036;-56
2022/06/18 01:55:48;;;;;;;21.45;12.57;;;;;;;21.22;61.62;101598.81;5032690;28;20052;-55
2022/06/18 01:58:19;;;;;;;19.48;11.98;;;;;;;21.21;61.70;101594.41;5032835;28;20048;-55
2022/06/18 02:00:49;;;;;;;19.77;12.27;;;;;;;21.21;62.00;101602.84;5032534;28;20095;-56
2022/06/18 02:03:15;;;;;;;17.60;12.23;;;;;;;21.16;62.30;101592.69;5032452;28;20468;-57
2022/06/18 02:05:40;;;;;;;20.17;11.57;;;;;;;21.09;62.40;101589.66;5032734;28;20031;-57
2022/06/18 02:08:08;;;;;;;18.95;12.27;;;;;;;21.02;62.67;101579.84;5032423;28;20116;-54
2022/06/18 02:10:41;;;;;;;18.30;11.80;;;;;;;20.96;62.61;101583.28;5032269;28;20053;-55
2022/06/18 02:13:07;;;;;;;18.67;11.88;;;;;;;20.95;63.29;101590.06;5032219;28;20029;-53
2022/06/18 02:15:37;;;;;;;20.17;12.07;;;;;;;20.94;63.65;101596.88;5031984;28;20036;-54
2022/06/18 02:18:06;;;;;;;20.30;12.60;;;;;;;20.88;63.58;101585.06;5032126;28;20048;-55
2022/06/18 02:20:37;;;;;;;18.42;12.35;;;;;;;20.86;64.05;101587.44;5032253;28;20025;-54
2022/06/18 02:23:03;;;;;;;19.85;12.90;;;;;;;20.83;63.80;101583.31;5031952;28;20033;-54
2022/06/18 02:25:30;;;;;;;18.83;12.10;;;;;;;20.79;63.92;101582.44;5077234;22;20048;-48
2022/06/18 02:28:02;;;;;;;19.38;12.55;;;;;;;20.79;63.68;101590.03;5092368;28;20032;-52
2022/06/18 02:30:34;;;;;;;19.10;12.75;;;;;;;20.71;64.11;101583.38;5092785;28;20529;-50
2022/06/18 02:33:18;;;;;;;20.15;13.55;;;;;;;20.74;63.29;101585.47;5091259;28;20032;-49
2022/06/18 02:35:43;;;;;;;19.65;13.50;;;;;;;20.70;64.50;101581.75;5092335;28;20478;-48
2022/06/18 02:38:16;;;;;;;21.27;13.48;;;;;;;20.66;64.75;101581.63;5092069;28;20059;-49
2022/06/18 02:40:42;;;;;;;22.00;13.85;;;;;;;20.67;64.53;101588.06;5092107;28;20038;-49
2022/06/18 02:43:08;;;;;;;18.85;13.60;;;;;;;20.63;64.48;101581.53;5091773;28;20016;-49
2022/06/18 02:45:34;;;;;;;22.73;13.70;;;;;;;20.51;64.85;101579.56;5092192;28;20081;-52
2022/06/18 02:48:01;;;;;;;21.65;14.25;;;;;;;20.54;65.15;101585.31;5092212;28;20131;-50
2022/06/18 02:50:36;;;;;;;21.38;13.27;;;;;;;20.42;64.79;101569.31;5092078;28;20068;-52
2022/06/18 02:53:02;;;;;;;20.08;13.27;;;;;;;20.49;65.32;101591.19;5091747;28;20024;-52
2022/06/18 02:55:33;;;;;;;20.38;13.57;;;;;;;20.42;65.56;101583.34;5092377;28;20024;-52
2022/06/18 02:58:13;;;;;;;21.50;13.43;;;;;;;20.36;65.09;101581.97;5092367;28;20463;-51
2022/06/18 03:00:41;;;;;;;21.35;13.07;;;;;;;20.37;65.60;101578.00;5092549;28;20028;-49
2022/06/18 03:03:10;;;;;;;20.38;13.82;;;;;;;20.38;65.84;101590.88;5092143;28;20031;-49
2022/06/18 03:05:36;;;;;;;19.13;13.57;;;;;;;20.39;65.59;101589.69;5092582;28;20463;-52
2022/06/18 03:08:01;;;;;;;20.25;13.90;;;;;;;20.37;65.76;101594.03;5092467;28;20082;-49
2022/06/18 03:13:11;;;;;;;19.90;13.73;;;;;;;20.38;65.88;101596.50;5091566;28;20081;-48
2022/06/18 03:15:36;;;;;;;20.30;13.60;;;;;;;20.35;65.83;101590.78;5091576;28;20431;-47
2022/06/18 03:18:03;;;;;;;19.45;14.05;;;;;;;20.39;65.65;101592.50;5091440;28;20062;-51
2022/06/18 03:20:42;;;;;;;20.90;13.70;;;;;;;20.38;65.41;101592.84;5091822;28;20092;-50
2022/06/18 03:23:15;;;;;;;20.20;14.05;;;;;;;20.38;65.72;101585.25;5091686;28;20123;-51
2022/06/18 03:25:40;;;;;;;20.25;14.02;;;;;;;20.37;65.71;101599.63;5091728;28;20071;-51
2022/06/18 03:28:06;;;;;;;20.63;13.68;;;;;;;20.39;65.71;101597.28;5091425;28;20059;-50
2022/06/18 03:30:31;;;;;;;20.05;13.20;;;;;;;20.38;65.44;101596.50;5091372;28;20494;-51
2022/06/18 03:32:56;;;;;;;23.15;15.05;;;;;;;20.38;65.45;101599.31;5091755;28;20156;-51
2022/06/18 03:35:21;;;;;;;21.20;14.57;;;;;;;20.32;65.73;101602.72;5091793;28;20538;-49
2022/06/18 03:37:47;;;;;;;21.15;14.25;;;;;;;20.31;66.01;101601.06;5091611;28;20025;-49
2022/06/18 03:40:12;;;;;;;22.30;14.45;;;;;;;20.25;65.91;101592.91;5091501;28;20513;-49
2022/06/18 03:42:38;;;;;;;23.33;14.73;;;;;;;20.22;65.95;101602.03;5091115;28;20062;-50
2022/06/18 03:45:04;;;;;;;19.75;14.15;;;;;;;20.21;66.07;101611.63;5090951;28;20439;-52
2022/06/18 03:47:29;;;;;;;21.85;15.00;;;;;;;20.21;66.18;101606.00;5091146;28;20040;-51
2022/06/18 03:49:54;;;;;;;20.75;14.60;;;;;;;20.25;66.31;101611.72;5091106;28;20482;-51
2022/06/18 03:52:20;;;;;;;21.60;13.60;;;;;;;20.32;65.92;101608.34;5091173;28;20486;-51
2022/06/18 03:54:45;;;;;;;22.35;14.15;;;;;;;20.33;65.86;101604.34;5092089;28;20467;-52
2022/06/18 03:57:17;;;;;;;21.40;14.20;;;;;;;20.38;65.44;101602.13;5095032;28;20099;-51
2022/06/18 03:59:42;;;;;;;20.58;14.02;;;;;;;20.39;65.58;101595.31;5093859;28;20020;-50
2022/06/18 04:02:09;;;;;;;21.38;14.23;;;;;;;20.44;65.74;101594.25;5094777;28;20025;-51
2022/06/18 04:04:34;;;;;;;22.55;14.30;;;;;;;20.46;65.88;101591.88;5095280;28;20028;-51
2022/06/18 04:06:59;;;;;;;21.58;14.65;;;;;;;20.51;65.54;101597.28;5095159;28;20078;-52
2022/06/18 04:09:25;;;;;;;20.55;14.23;;;;;;;20.54;65.31;101592.94;5095433;28;20059;-52
2022/06/18 04:11:50;;;;;;;19.70;14.25;;;;;;;20.55;65.26;101583.31;5094080;28;20498;-51
2022/06/18 04:14:16;;;;;;;22.00;14.25;;;;;;;20.58;65.36;101593.84;5095493;28;20056;-49
2022/06/18 04:16:41;;;;;;;20.98;14.25;;;;;;;20.64;65.06;101586.78;5095398;28;20026;-48
2022/06/18 04:19:08;;;;;;;20.45;14.38;;;;;;;20.66;65.22;101589.25;5095103;28;20052;-48
2022/06/18 04:21:33;;;;;;;19.88;14.80;;;;;;;20.67;64.90;101586.09;5095184;28;20023;-48
2022/06/18 04:23:58;;;;;;;23.25;14.57;;;;;;;20.71;65.01;101584.19;5095000;28;20036;-49
2022/06/18 04:26:24;;;;;;;20.90;14.10;;;;;;;20.79;65.12;101587.22;5094405;28;20094;-50
2022/06/18 04:28:49;;;;;;;22.58;15.30;;;;;;;20.77;64.68;101579.16;5094711;28;20169;-51
2022/06/18 04:31:15;;;;;;;21.75;14.93;;;;;;;20.79;65.01;101574.00;5094526;28;20077;-52
2022/06/18 04:33:41;;;;;;;21.98;15.43;;;;;;;20.87;64.68;101577.84;5094346;28;20442;-49
2022/06/18 04:36:06;;;;;;;21.45;14.73;;;;;;;20.96;64.26;101583.28;5094338;28;20486;-51
2022/06/18 04:38:32;;;;;;;21.98;15.00;;;;;;;20.95;64.42;101576.84;5095022;28;20024;-51
2022/06/18 04:40:57;;;;;;;22.40;15.15;;;;;;;21.00;64.69;101578.59;5094505;28;20024;-51
2022/06/18 04:43:22;;;;;;;22.00;14.48;;;;;;;21.01;64.64;101574.59;5094102;28;20063;-50
2022/06/18 04:45:48;;;;;;;21.10;15.60;;;;;;;21.10;64.57;101592.13;5093234;28;20039;-51
2022/06/18 04:48:14;;;;;;;22.45;16.50;;;;;;;21.11;63.98;101590.09;5094336;28;20024;-52
2022/06/18 04:50:40;;;;;;;23.85;15.85;;;;;;;21.22;64.00;101593.19;5094339;28;20508;-52
2022/06/18 04:53:07;;;;;;;23.58;15.27;;;;;;;21.24;64.02;101590.84;5094527;28;20090;-50
2022/06/18 04:55:33;;;;;;;22.67;15.65;;;;;;;21.32;63.22;101599.13;5094139;28;20102;-51
2022/06/18 04:57:59;;;;;;;22.38;15.85;;;;;;;21.32;63.24;101592.66;5094286;28;20024;-49
2022/06/18 05:00:24;;;;;;;23.50;15.45;;;;;;;21.33;63.31;101592.31;5094323;28;20024;-49
2022/06/18 05:02:50;;;;;;;22.85;15.50;;;;;;;21.35;63.22;101597.56;5093906;28;20020;-52
2022/06/18 05:05:21;;;;;;;23.00;15.85;;;;;;;21.26;63.55;101580.84;5094175;28;20063;-53
2022/06/18 05:07:47;;;;;;;24.45;16.50;;;;;;;21.34;63.50;101596.78;5091509;28;20086;-48
2022/06/18 05:10:13;;;;;;;22.05;15.85;;;;;;;21.37;63.49;101592.41;5093969;28;20028;-49
2022/06/18 05:12:38;;;;;;;24.98;16.88;;;;;;;21.43;63.71;101587.34;5092402;28;20040;-49
2022/06/18 05:15:06;;;;;;;25.15;16.77;;;;;;;21.49;63.22;101597.13;5094184;28;20027;-48
2022/06/18 05:17:33;;;;;;;22.77;16.25;;;;;;;21.50;63.09;101584.69;5094151;28;20157;-51
2022/06/18 05:19:59;;;;;;;23.20;16.50;;;;;;;21.61;63.18;101599.06;5093835;28;20038;-49
2022/06/18 05:22:25;;;;;;;23.83;16.80;;;;;;;21.66;63.34;101596.78;5093970;28;20103;-50
2022/06/18 05:24:50;;;;;;;23.55;17.35;;;;;;;21.73;63.04;101603.75;5093442;28;20117;-49
2022/06/18 05:27:25;;;;;;;23.13;17.25;;;;;;;21.79;63.22;101605.13;5093786;28;20053;-49
2022/06/18 05:29:51;;;;;;;22.15;15.93;;;;;;;21.87;63.29;101606.94;5093109;28;20110;-52
2022/06/18 05:32:16;;;;;;;23.70;17.10;;;;;;;21.96;62.64;101610.38;5093459;28;20127;-50
2022/06/18 05:34:41;;;;;;;25.60;17.35;;;;;;;22.03;62.67;101609.72;5093376;28;20178;-49
2022/06/18 05:37:15;;;;;;;24.38;16.75;;;;;;;21.94;62.54;101592.22;5093296;28;20046;-52
2022/06/18 05:39:41;;;;;;;24.38;17.35;;;;;;;22.10;62.37;101601.44;5093550;28;20028;-52
2022/06/18 05:42:07;;;;;;;23.48;16.10;;;;;;;22.15;62.72;101607.97;5093114;28;20070;-50
2022/06/18 05:44:33;;;;;;;24.42;18.08;;;;;;;22.12;62.15;101612.31;5093469;28;20032;-52
2022/06/18 05:46:58;;;;;;;23.80;17.25;;;;;;;22.16;62.19;101615.22;5093103;28;20032;-53
2022/06/18 05:49:23;;;;;;;23.58;15.50;;;;;;;22.29;61.59;101616.75;5093260;28;20131;-53
2022/06/18 05:51:48;;;;;;;24.08;16.70;;;;;;;22.35;60.26;101626.53;5093154;28;20028;-51
2022/06/18 05:54:14;;;;;;;24.83;16.10;;;;;;;22.43;59.50;101616.28;5092783;28;20032;-49
2022/06/18 05:56:39;;;;;;;25.33;15.68;;;;;;;22.52;58.48;101607.63;5093353;28;20385;-50
2022/06/18 05:59:04;;;;;;;22.48;15.05;;;;;;;22.57;58.74;101613.78;5093284;28;20024;-50
2022/06/18 06:01:30;;;;;;;23.00;15.00;;;;;;;22.64;58.63;101615.09;5093074;28;20016;-48
2022/06/18 06:03:56;;;;;;;26.52;15.10;;;;;;;22.72;58.14;101605.59;5093595;28;20024;-49
2022/06/18 06:06:22;;;;;;;22.52;14.88;;;;;;;22.73;57.53;101602.41;5093073;28;20039;-51
2022/06/18 06:08:48;;;;;;;23.98;16.10;;;;;;;22.77;57.62;101605.28;5092798;28;20020;-51
2022/06/18 06:11:28;;;;;;;24.25;15.63;;;;;;;22.83;57.64;101601.00;5093143;28;20494;-49
2022/06/18 06:13:54;;;;;;;23.42;15.25;;;;;;;22.92;57.53;101597.91;5093077;28;20035;-52
2022/06/18 06:16:20;;;;;;;24.63;16.63;;;;;;;22.99;56.37;101600.06;5092957;28;20024;-50
2022/06/18 06:18:46;;;;;;;21.92;15.05;;;;;;;22.99;56.40;101588.78;5092772;28;20028;-52
2022/06/18 06:21:12;;;;;;;22.55;14.95;;;;;;;23.00;56.57;101582.75;5092820;28;20031;-50
2022/06/18 06:23:37;;;;;;;24.20;15.77;;;;;;;23.08;56.19;101595.00;5092581;28;20048;-50
2022/06/18 06:26:03;;;;;;;23.90;16.00;;;;;;;23.09;56.35;101593.00;5092383;28;20048;-51
2022/06/18 06:28:30;;;;;;;27.33;15.60;;;;;;;23.05;56.10;101584.47;5092332;28;20117;-52
2022/06/18 06:30:56;;;;;;;23.98;16.13;;;;;;;23.11;55.98;101594.25;5092268;28;20467;-52
2022/06/18 06:33:22;;;;;;;22.67;14.73;;;;;;;23.16;55.89;101593.94;5092354;28;20466;-50
2022/06/18 06:35:48;;;;;;;25.70;15.32;;;;;;;23.23;55.85;101598.13;5092309;28;20065;-52
2022/06/18 06:38:14;;;;;;;24.00;14.82;;;;;;;23.30;55.98;101596.25;5092846;28;20024;-53
2022/06/18 06:40:41;;;;;;;22.55;15.05;;;;;;;23.35;55.73;101595.94;5092774;28;20108;-50
2022/06/18 06:43:07;;;;;;;25.67;15.38;;;;;;;23.40;55.98;101599.63;5092206;28;20470;-53
2022/06/18 06:45:34;;;;;;;23.80;14.60;;;;;;;23.47;56.06;101589.28;5092209;28;20035;-53
2022/06/18 06:48:00;;;;;;;24.13;15.10;;;;;;;23.57;55.70;101601.94;5092246;28;20059;-50
2022/06/18 06:50:28;;;;;;;23.90;14.60;;;;;;;23.62;55.26;101600.78;5092153;28;20027;-52
2022/06/18 06:52:54;;;;;;;24.27;14.70;;;;;;;23.72;55.49;101605.81;5092450;28;20039;-53
2022/06/18 06:58:18;;;;;;;24.00;15.07;;;;;;;23.79;54.65;101602.28;5092755;28;20494;-55
2022/06/18 07:00:51;;;;;;;24.00;15.15;;;;;;;23.83;54.71;101598.31;5092524;28;20200;-53
2022/06/18 07:03:24;;;;;;;23.90;15.02;;;;;;;23.95;54.79;101602.97;5089155;28;20050;-52
2022/06/18 07:05:49;;;;;;;23.95;15.23;;;;;;;24.08;54.71;101594.28;5092116;28;20023;-51
2022/06/18 07:08:14;;;;;;;25.52;15.02;;;;;;;24.16;54.70;101596.00;5091956;28;20039;-53
2022/06/18 07:10:40;;;;;;;24.30;14.82;;;;;;;24.27;54.26;101604.66;5091969;28;20024;-53
2022/06/18 07:13:06;;;;;;;24.20;15.52;;;;;;;24.29;53.75;101602.22;5091985;28;20302;-52
2022/06/18 07:15:33;;;;;;;25.05;15.13;;;;;;;24.25;53.66;101605.00;5092181;28;20070;-54
2022/06/18 07:17:59;;;;;;;23.27;14.52;;;;;;;24.28;53.51;101598.59;5091921;28;20024;-53
2022/06/18 07:20:25;;;;;;;24.92;15.05;;;;;;;24.37;53.94;101603.16;5091783;28;20101;-53
2022/06/18 07:22:50;;;;;;;24.13;14.55;;;;;;;24.43;53.68;101605.28;5092023;28;20032;-51
2022/06/18 07:25:16;;;;;;;25.10;14.80;;;;;;;24.48;53.47;101606.13;5092073;28;20104;-51
2022/06/18 07:27:43;;;;;;;25.48;14.15;;;;;;;24.61;53.30;101608.31;5092215;28;20040;-51
2022/06/18 07:30:10;;;;;;;24.70;14.95;;;;;;;24.65;53.01;101599.88;5093868;28;20025;-53
2022/06/18 07:32:43;;;;;;;23.58;14.63;;;;;;;24.69;52.43;101609.25;5096488;28;20028;-53
2022/06/18 07:35:15;;;;;;;23.27;14.57;;;;;;;24.76;52.71;101598.00;5096353;28;20028;-50
2022/06/18 07:37:41;;;;;;;22.20;14.05;;;;;;;24.80;52.71;101589.56;5096255;28;20354;-54
2022/06/18 07:40:06;;;;;;;23.98;14.68;;;;;;;24.94;52.89;101593.75;5096038;28;20511;-53
2022/06/18 07:42:32;;;;;;;26.25;14.45;;;;;;;24.99;53.57;101591.41;5095692;28;20511;-53
2022/06/18 07:44:57;;;;;;;21.80;13.82;;;;;;;25.05;52.73;101584.16;5095780;28;20028;-53
2022/06/18 07:47:25;;;;;;;23.40;15.10;;;;;;;25.13;52.33;101587.09;5095930;28;20030;-53
2022/06/18 07:49:50;;;;;;;23.20;14.25;;;;;;;25.20;51.98;101585.13;5095803;28;20036;-53
2022/06/18 07:52:15;;;;;;;23.92;14.85;;;;;;;25.24;52.15;101593.66;5095827;28;20027;-53
2022/06/18 07:54:42;;;;;;;21.80;13.90;;;;;;;25.38;52.25;101592.97;5095642;28;20476;-50
2022/06/18 07:57:08;;;;;;;25.40;15.27;;;;;;;25.39;52.03;101586.09;5095411;28;20110;-50
2022/06/18 07:59:34;;;;;;;23.92;14.38;;;;;;;25.50;51.40;101577.75;5095557;28;20209;-52
2022/06/18 08:01:59;;;;;;;26.35;15.27;;;;;;;25.57;51.33;101579.81;5095297;28;20060;-52
2022/06/18 08:04:25;;;;;;;21.95;14.52;;;;;;;25.58;51.00;101581.44;5095492;28;20024;-51
2022/06/18 08:06:50;;;;;;;25.15;15.20;;;;;;;25.65;51.08;101578.66;5095633;28;20463;-52
2022/06/18 08:09:15;;;;;;;22.38;14.57;;;;;;;25.67;50.79;101577.06;5094843;28;20036;-50
2022/06/18 08:11:42;;;;;;;23.17;14.45;;;;;;;25.74;50.59;101564.94;5094494;28;20024;-53
2022/06/18 08:14:08;;;;;;;24.38;14.55;;;;;;;25.82;50.83;101563.81;5093716;28;20081;-53
2022/06/18 08:16:33;;;;;;;25.35;14.88;;;;;;;25.96;50.05;101567.94;5095201;28;20118;-52
2022/06/18 08:18:59;;;;;;;24.23;15.55;;;;;;;26.08;49.85;101566.78;5094777;28;20028;-53
2022/06/18 08:21:38;;;;;;;23.40;15.27;;;;;;;26.17;50.00;101555.91;5095355;28;20027;-52
2022/06/18 08:24:07;;;;;;;26.30;14.52;;;;;;;26.21;50.45;101553.94;5094754;28;20133;-53
2022/06/18 08:26:33;;;;;;;25.10;14.63;;;;;;;26.28;49.57;101553.16;5094713;28;20105;-51
2022/06/18 08:29:01;;;;;;;22.10;14.20;;;;;;;26.43;50.27;101554.03;5093744;28;20067;-50
2022/06/18 08:31:27;;;;;;;24.25;14.82;;;;;;;26.51;50.14;101552.84;5094272;28;20024;-52
2022/06/18 08:33:53;;;;;;;24.88;14.40;;;;;;;26.65;49.54;101559.75;5095113;28;20119;-51
2022/06/18 08:36:18;;;;;;;24.45;14.00;;;;;;;26.74;48.49;101552.50;5094875;28;20467;-54
2022/06/18 08:38:46;;;;;;;22.85;15.00;;;;;;;26.81;47.92;101551.75;5092472;28;20111;-51
2022/06/18 08:41:30;;;;;;;24.40;15.13;;;;;;;26.85;48.36;101551.75;5092773;28;20047;-53
2022/06/18 08:44:14;;;;;;;22.45;15.00;;;;;;;26.93;48.16;101553.38;5091605;28;20035;-51
2022/06/18 08:47:16;;;;;;;22.88;15.30;;;;;;;27.06;48.00;101562.31;5093461;28;20092;-52
2022/06/18 08:50:03;;;;;;;26.70;14.98;;;;;;;27.01;47.38;101562.72;5093136;28;20125;-52
2022/06/18 08:52:47;;;;;;;23.40;14.77;;;;;;;27.13;47.44;101565.16;5093575;28;20039;-51
2022/06/18 08:55:31;;;;;;;24.80;15.13;;;;;;;27.17;47.01;101562.31;5094043;28;20174;-51
2022/06/18 08:58:02;;;;;;;25.30;15.40;;;;;;;27.25;46.48;101561.13;5094805;28;20066;-53
2022/06/18 09:00:43;;;;;;;24.60;14.43;;;;;;;27.33;47.04;101565.59;5094356;28;20031;-53
2022/06/18 09:03:16;;;;;;;23.95;14.70;;;;;;;27.45;46.49;101564.41;5094190;28;20067;-53
2022/06/18 09:05:56;;;;;;;27.80;16.30;;;;;;;27.51;46.80;101557.09;5094457;28;20024;-52
2022/06/18 09:08:24;;;;;;;23.65;15.60;;;;;;;27.46;46.03;101568.03;5094442;28;20055;-52
2022/06/18 09:10:58;;;;;;;23.55;14.95;;;;;;;27.53;45.99;101565.22;5094496;28;20111;-52
2022/06/18 09:13:29;;;;;;;24.58;14.45;;;;;;;27.45;46.16;101557.88;5094751;28;20028;-52
2022/06/18 09:15:59;;;;;;;25.10;13.80;;;;;;;27.43;46.29;101577.38;5094461;28;20062;-52
2022/06/18 09:18:47;;;;;;;24.98;15.45;;;;;;;27.51;46.86;101568.44;5093981;28;20487;-53
2022/06/18 09:21:17;;;;;;;22.83;14.40;;;;;;;27.54;46.30;101561.13;5094157;28;20031;-52
2022/06/18 09:24:04;;;;;;;24.20;15.13;;;;;;;27.77;46.73;101574.09;5094132;28;20028;-53
2022/06/18 09:26:38;;;;;;;23.17;15.10;;;;;;;27.64;46.42;101576.56;5093895;28;20044;-52
2022/06/18 09:29:13;;;;;;;24.50;16.08;;;;;;;27.58;48.15;101566.84;5093830;28;20374;-53
2022/06/18 09:31:46;;;;;;;24.65;15.40;;;;;;;27.71;48.13;101565.19;5094033;28;20455;-53
2022/06/18 09:34:29;;;;;;;24.55;15.20;;;;;;;27.77;47.89;101571.25;5093024;28;20064;-53
2022/06/18 09:37:02;;;;;;;27.58;16.05;;;;;;;27.83;46.93;101558.25;5094248;28;20463;-53
2022/06/18 09:39:36;;;;;;;26.00;14.97;;;;;;;28.13;46.81;101557.00;5093705;28;20036;-52
2022/06/18 09:42:07;;;;;;;25.02;15.55;;;;;;;28.19;45.99;101563.91;5093977;28;20055;-53
2022/06/18 09:44:51;;;;;;;25.73;15.77;;;;;;;28.27;46.01;101551.25;5094565;28;20032;-53
2022/06/18 09:47:28;;;;;;;24.65;14.50;;;;;;;28.52;46.06;101553.16;5093862;28;20545;-53
2022/06/18 09:49:54;;;;;;;23.52;14.65;;;;;;;28.66;45.55;101548.63;5093995;28;20093;-51
2022/06/18 09:52:31;;;;;;;26.17;17.42;;;;;;;28.53;45.20;101545.47;5091934;28;20538;-53
2022/06/18 09:55:03;;;;;;;27.00;16.13;;;;;;;28.32;45.89;101536.59;5094150;28;20039;-52
2022/06/18 09:57:32;;;;;;;26.63;16.30;;;;;;;28.36;45.59;101539.41;5093729;28;20028;-53
2022/06/18 10:00:04;;;;;;;25.55;16.30;;;;;;;28.26;45.53;101541.09;5093174;28;20031;-52
2022/06/18 10:02:33;;;;;;;22.98;14.10;;;;;;;28.41;44.30;101530.47;5093320;28;20024;-53
2022/06/18 10:07:50;;;;;;;26.25;14.52;;;;;;;28.46;44.85;101541.41;5070904;28;20472;-52
2022/06/18 10:10:18;;;;;;;24.30;13.75;;;;;;;28.64;43.82;101532.78;5070946;28;20035;-50
2022/06/18 10:12:48;;;;;;;24.23;13.73;;;;;;;28.84;42.83;101531.47;5070934;28;20387;-52
2022/06/18 10:15:16;;;;;;;21.20;12.45;;;;;;;29.10;42.20;101521.50;5070870;28;20029;-50
2022/06/18 10:18:14;;;;;;;21.77;11.80;;;;;;;29.40;42.46;101529.41;5070753;28;20166;-52
2022/06/18 10:20:47;;;;;;;24.63;13.27;;;;;;;29.59;41.80;101526.41;5052446;28;20064;-51
2022/06/18 10:23:39;;;;;;;23.80;13.63;;;;;;;29.62;41.71;101522.69;5070125;28;20024;-52
2022/06/18 10:26:10;;;;;;;22.73;13.50;;;;;;;29.70;42.53;101532.81;5070077;28;20076;-52
2022/06/18 10:28:50;;;;;;;26.17;13.88;;;;;;;29.76;41.80;101530.31;5070139;28;20031;-52
2022/06/18 10:31:31;;;;;;;22.63;14.98;;;;;;;29.82;41.46;101528.59;5070053;28;20086;-51
2022/06/18 10:34:05;;;;;;;24.05;14.23;;;;;;;30.00;42.40;101517.81;5070158;28;20028;-52
2022/06/18 10:37:08;;;;;;;23.85;13.35;;;;;;;30.14;42.12;101521.72;5070459;28;20055;-52
2022/06/18 10:39:43;;;;;;;22.80;13.63;;;;;;;30.24;41.37;101519.97;5068293;28;20028;-53
2022/06/18 10:42:19;;;;;;;22.88;14.15;;;;;;;30.29;40.70;101523.16;5069346;28;20131;-50
2022/06/18 10:45:00;;;;;;;22.80;13.68;;;;;;;30.04;40.96;101514.94;5069485;28;20036;-51
2022/06/18 10:47:32;;;;;;;23.00;14.40;;;;;;;29.91;41.11;101508.94;5069046;28;20078;-53
2022/06/18 10:50:12;;;;;;;23.42;14.18;;;;;;;30.01;40.87;101504.34;5069589;28;20028;-53
2022/06/18 10:52:38;;;;;;;23.33;13.43;;;;;;;30.21;40.83;101498.81;5070128;28;20056;-52
2022/06/18 10:55:13;;;;;;;24.02;12.82;;;;;;;30.43;40.59;101502.19;5070104;28;20064;-51
2022/06/18 10:57:39;;;;;;;21.42;12.50;;;;;;;30.60;39.41;101502.38;5070040;28;20036;-53
2022/06/18 11:00:17;;;;;;;22.42;13.30;;;;;;;30.71;39.29;101500.19;5069631;28;20463;-53
2022/06/18 11:02:44;;;;;;;24.38;12.70;;;;;;;30.74;38.61;101498.50;5069540;28;20112;-50
2022/06/18 11:05:36;;;;;;;22.80;12.80;;;;;;;30.75;38.75;101494.41;5069454;28;20029;-53
2022/06/18 11:08:16;;;;;;;24.70;13.07;;;;;;;30.72;37.80;101496.09;5069444;28;20058;-48
2022/06/18 11:10:53;;;;;;;24.13;12.50;;;;;;;30.69;37.95;101494.09;5083779;28;20032;-53
2022/06/18 11:13:35;;;;;;;22.48;12.70;;;;;;;30.64;38.40;101489.66;5081383;28;20134;-53
2022/06/18 11:16:21;;;;;;;25.52;12.50;;;;;;;30.74;38.55;101484.22;5084181;28;20114;-52
2022/06/18 11:18:55;;;;;;;25.75;12.60;;;;;;;30.72;38.18;101469.56;5088047;28;20467;-53
2022/06/18 11:21:32;;;;;;;24.63;12.95;;;;;;;30.80;38.57;101473.91;5081589;28;20990;-53
2022/06/18 11:24:05;;;;;;;22.85;12.05;;;;;;;30.83;38.35;101473.06;5085353;28;20028;-53
2022/06/18 11:26:31;;;;;;;23.02;12.57;;;;;;;31.01;38.45;101464.22;5084154;28;20044;-53
2022/06/18 11:29:09;;;;;;;21.85;12.48;;;;;;;31.14;38.29;101457.88;5085281;28;20024;-50
2022/06/18 11:31:43;;;;;;;21.52;11.70;;;;;;;31.19;37.94;101448.81;5081955;28;20036;-52
2022/06/18 11:34:25;;;;;;;23.48;12.98;;;;;;;31.21;38.27;101440.63;5083867;28;20390;-52